Time;durP1;ratioP1;P1;durP2;ratioP2;P2;SDS_P1;SDS_P2;PMS_P1;PMS_P2;Temp;Humidity;BMP_temperature;BMP_pressure;BME280_temperature;BME280_humidity;BME280_pressure;Samples;Min_cycle;Max_cycle;Signal;HPM_P1;HPM_P2
2022/10/29 00:02:05;;;;;;;11.50;5.10;;;16.80;83.70;;;;;;5014516;28;20040;-62
2022/10/29 00:04:31;;;;;;;13.60;5.45;;;16.80;83.70;;;;;;5016524;28;20371;-62
2022/10/29 00:06:56;;;;;;;13.90;5.43;;;16.80;83.70;;;;;;5015917;28;20038;-62
2022/10/29 00:09:22;;;;;;;15.48;6.50;;;16.70;83.70;;;;;;5014075;28;20426;-62
2022/10/29 00:11:48;;;;;;;14.60;5.80;;;16.70;83.70;;;;;;5014781;28;20112;-62
2022/10/29 00:14:14;;;;;;;18.73;6.07;;;16.70;83.70;;;;;;5015852;28;20344;-62
2022/10/29 00:16:40;;;;;;;12.32;5.30;;;16.70;83.80;;;;;;5022555;28;20033;-62
2022/10/29 00:19:06;;;;;;;15.30;5.50;;;16.70;83.70;;;;;;5024862;28;20061;-62
2022/10/29 00:21:33;;;;;;;14.40;5.65;;;16.60;83.70;;;;;;5029526;28;20390;-62
2022/10/29 00:23:58;;;;;;;13.77;5.40;;;16.60;83.70;;;;;;5029849;28;20081;-62
2022/10/29 00:26:26;;;;;;;11.88;5.53;;;16.60;83.70;;;;;;5035882;28;20033;-62
2022/10/29 00:28:54;;;;;;;18.67;5.32;;;16.60;83.70;;;;;;5025900;28;20030;-63
2022/10/29 00:31:24;;;;;;;15.30;5.72;;;16.60;83.70;;;;;;5025123;28;20033;-62
2022/10/29 00:33:53;;;;;;;13.65;5.53;;;16.60;83.60;;;;;;5030503;28;20029;-62
2022/10/29 00:36:23;;;;;;;14.02;5.80;;;16.60;83.60;;;;;;5035841;28;20079;-62
2022/10/29 00:38:49;;;;;;;12.85;5.57;;;16.60;83.50;;;;;;5025179;28;20413;-62
2022/10/29 00:41:22;;;;;;;16.00;5.43;;;16.50;83.50;;;;;;5015119;28;20107;-62
2022/10/29 00:44:11;;;;;;;12.25;5.50;;;16.50;83.50;;;;;;5014574;28;20037;-62
2022/10/29 00:46:39;;;;;;;13.60;5.63;;;16.50;83.40;;;;;;5015433;28;20029;-62
2022/10/29 00:49:04;;;;;;;13.63;5.80;;;16.50;83.50;;;;;;5015468;28;20123;-62
2022/10/29 00:51:31;;;;;;;13.75;6.25;;;16.40;83.40;;;;;;5015714;28;20175;-62
2022/10/29 00:54:03;;;;;;;17.67;6.70;;;16.40;83.40;;;;;;5014354;28;20112;-62
2022/10/29 00:56:33;;;;;;;13.13;6.28;;;16.40;83.40;;;;;;5015120;28;20033;-62
2022/10/29 00:58:59;;;;;;;11.90;6.45;;;16.40;83.40;;;;;;5014925;28;20041;-62
2022/10/29 01:01:25;;;;;;;14.02;6.20;;;16.40;83.50;;;;;;5013304;28;20030;-62
2022/10/29 01:03:51;;;;;;;15.93;6.50;;;16.30;83.50;;;;;;5015090;28;20167;-62
2022/10/29 01:06:17;;;;;;;14.65;6.70;;;16.40;83.60;;;;;;5015441;28;20041;-64
2022/10/29 01:08:43;;;;;;;14.07;6.13;;;16.30;83.50;;;;;;5013742;28;20025;-62
2022/10/29 01:11:28;;;;;;;17.55;7.85;;;16.30;83.60;;;;;;5014610;28;20046;-62
2022/10/29 01:14:08;;;;;;;16.30;7.35;;;16.30;83.50;;;;;;5015069;28;20034;-62
2022/10/29 01:16:48;;;;;;;13.85;7.03;;;16.30;83.50;;;;;;5015439;28;20032;-62
2022/10/29 01:19:33;;;;;;;14.07;6.57;;;16.20;83.40;;;;;;5013171;28;20131;-62
2022/10/29 01:22:10;;;;;;;16.20;6.82;;;16.20;83.40;;;;;;5015499;28;20033;-62
2022/10/29 01:24:55;;;;;;;13.75;6.75;;;16.20;83.40;;;;;;5012314;28;20038;-62
2022/10/29 01:27:38;;;;;;;12.98;6.53;;;16.20;83.30;;;;;;5016650;28;20044;-62
2022/10/29 01:30:18;;;;;;;14.48;6.70;;;16.10;83.20;;;;;;5024546;28;20033;-62
2022/10/29 01:33:10;;;;;;;11.38;5.90;;;16.10;83.20;;;;;;5020946;28;20048;-62
2022/10/29 01:36:10;;;;;;;11.73;6.10;;;16.10;83.20;;;;;;5030766;28;20045;-62
2022/10/29 01:39:01;;;;;;;13.27;5.70;;;16.10;83.10;;;;;;5031996;28;20117;-62
2022/10/29 01:41:41;;;;;;;14.05;6.93;;;16.00;83.10;;;;;;5012576;28;20100;-62
2022/10/29 01:44:36;;;;;;;11.23;4.75;;;16.10;83.10;;;;;;5014484;28;20038;-62
2022/10/29 01:47:04;;;;;;;13.27;5.75;;;16.00;83.10;;;;;;5014367;28;20030;-62
2022/10/29 01:49:50;;;;;;;12.68;5.05;;;16.00;83.10;;;;;;5012616;28;20446;-62
2022/10/29 01:52:18;;;;;;;12.98;5.43;;;15.90;83.00;;;;;;5012501;28;20044;-62
2022/10/29 01:54:45;;;;;;;13.85;5.60;;;15.90;83.00;;;;;;5012575;28;20026;-62
2022/10/29 01:57:31;;;;;;;12.20;6.25;;;15.90;83.00;;;;;;5014212;28;20022;-62
2022/10/29 02:00:01;;;;;;;13.25;5.50;;;15.90;82.90;;;;;;5013633;28;20030;-62
2022/10/29 02:03:12;;;;;;;13.57;5.65;;;15.90;82.90;;;;;;5013993;28;20129;-62
2022/10/29 02:05:53;;;;;;;13.02;5.30;;;15.90;82.90;;;;;;5014090;28;20042;-62
2022/10/29 02:08:47;;;;;;;12.57;5.68;;;15.80;82.90;;;;;;5014216;28;20049;-62
2022/10/29 02:11:32;;;;;;;12.38;5.45;;;15.80;82.80;;;;;;5013173;28;20022;-62
2022/10/29 02:14:03;;;;;;;15.10;5.45;;;15.80;83.50;;;;;;5012865;28;20038;-62
2022/10/29 02:16:30;;;;;;;12.20;5.85;;;15.80;82.80;;;;;;5014467;28;20109;-62
2022/10/29 02:18:57;;;;;;;14.35;5.63;;;15.70;83.40;;;;;;5012946;28;20383;-62
2022/10/29 02:21:22;;;;;;;13.43;5.60;;;15.70;83.40;;;;;;5013091;28;20036;-62
2022/10/29 02:23:49;;;;;;;10.82;5.43;;;15.70;82.70;;;;;;5013225;28;20034;-62
2022/10/29 02:26:15;;;;;;;16.80;5.82;;;15.70;82.70;;;;;;5013671;28;20018;-62
2022/10/29 02:28:41;;;;;;;11.23;5.18;;;15.70;82.70;;;;;;5014451;28;20390;-62
2022/10/29 02:31:06;;;;;;;11.07;5.28;;;15.70;82.70;;;;;;5009569;28;20038;-62
2022/10/29 02:33:32;;;;;;;9.88;4.82;;;15.70;82.70;;;;;;5013692;28;20021;-62
2022/10/29 02:35:58;;;;;;;10.77;5.32;;;15.70;82.70;;;;;;5013764;28;20027;-62
2022/10/29 02:38:23;;;;;;;11.75;5.57;;;15.70;82.70;;;;;;5014353;28;20021;-63
2022/10/29 02:40:49;;;;;;;13.82;5.07;;;15.70;82.70;;;;;;5012502;28;20088;-62
2022/10/29 02:43:15;;;;;;;13.27;5.47;;;15.60;82.60;;;;;;5014139;28;20042;-62
2022/10/29 02:45:40;;;;;;;11.45;4.72;;;15.60;82.60;;;;;;5012391;28;20022;-62
2022/10/29 02:48:06;;;;;;;12.10;5.28;;;15.60;82.60;;;;;;5014577;28;20085;-62
2022/10/29 02:50:31;;;;;;;14.40;4.82;;;15.60;82.60;;;;;;5028950;28;20084;-62
2022/10/29 02:52:57;;;;;;;12.48;4.85;;;15.60;82.60;;;;;;5014366;28;20022;-62
2022/10/29 02:55:22;;;;;;;16.98;5.43;;;15.60;82.60;;;;;;5013173;28;20057;-62
2022/10/29 02:57:48;;;;;;;10.80;5.50;;;15.60;82.60;;;;;;5013775;28;20036;-62
2022/10/29 03:00:14;;;;;;;17.15;6.03;;;15.60;82.70;;;;;;5012112;28;20112;-62
2022/10/29 03:02:40;;;;;;;18.13;5.28;;;15.60;83.30;;;;;;5014605;28;20064;-63
2022/10/29 03:05:06;;;;;;;17.30;5.55;;;15.60;82.70;;;;;;5016643;28;20415;-63
2022/10/29 03:07:36;;;;;;;14.88;5.40;;;15.60;82.90;;;;;;5017380;28;20026;-62
2022/10/29 03:10:06;;;;;;;18.80;6.13;;;15.50;82.60;;;;;;5017407;28;20026;-62
2022/10/29 03:12:32;;;;;;;19.17;5.70;;;15.50;82.60;;;;;;5016157;28;20041;-62
2022/10/29 03:14:58;;;;;;;19.73;6.25;;;15.50;82.60;;;;;;5015760;28;20109;-62
2022/10/29 03:17:24;;;;;;;18.30;6.05;;;15.50;82.60;;;;;;5017640;28;20117;-62
2022/10/29 03:19:50;;;;;;;14.98;5.75;;;15.50;82.70;;;;;;5016897;28;20054;-62
2022/10/29 03:22:15;;;;;;;19.20;6.43;;;15.50;82.70;;;;;;5016677;28;20029;-62
2022/10/29 03:24:42;;;;;;;19.00;7.20;;;15.50;82.70;;;;;;5012645;28;20134;-62
2022/10/29 03:27:08;;;;;;;17.33;6.63;;;15.50;82.70;;;;;;5013036;28;20108;-62
2022/10/29 03:29:33;;;;;;;15.23;6.22;;;15.50;82.70;;;;;;5016187;28;20033;-62
2022/10/29 03:31:59;;;;;;;13.57;6.10;;;15.40;82.60;;;;;;5022444;28;20030;-62
2022/10/29 03:34:25;;;;;;;14.48;7.25;;;15.40;82.70;;;;;;5031969;28;20061;-62
2022/10/29 03:36:50;;;;;;;15.98;6.82;;;15.40;82.80;;;;;;5019877;28;20030;-62
2022/10/29 03:39:16;;;;;;;20.52;6.80;;;15.40;82.70;;;;;;5027725;28;20395;-62
2022/10/29 03:41:43;;;;;;;19.40;7.10;;;15.40;82.70;;;;;;5023843;28;20493;-62
2022/10/29 03:44:09;;;;;;;17.17;7.13;;;15.40;82.70;;;;;;5027019;28;20036;-62
2022/10/29 03:46:34;;;;;;;19.48;7.50;;;15.40;82.70;;;;;;5018301;28;20029;-62
2022/10/29 03:49:00;;;;;;;16.23;7.20;;;15.40;83.40;;;;;;5025604;28;20041;-62
2022/10/29 03:51:26;;;;;;;15.73;7.18;;;15.40;82.80;;;;;;5021045;28;20022;-62
2022/10/29 03:53:51;;;;;;;18.95;8.50;;;15.40;82.80;;;;;;5032696;28;20398;-63
2022/10/29 03:56:17;;;;;;;16.88;8.50;;;15.30;82.80;;;;;;5022906;28;20394;-62
2022/10/29 03:58:43;;;;;;;13.90;6.65;;;15.30;82.90;;;;;;5018963;28;20021;-63
2022/10/29 04:01:09;;;;;;;17.90;7.53;;;15.30;83.00;;;;;;5014797;28;20489;-62
2022/10/29 04:03:40;;;;;;;15.30;8.02;;;15.30;83.10;;;;;;5015900;28;20081;-62
2022/10/29 04:06:14;;;;;;;13.73;7.07;;;15.30;83.10;;;;;;5015767;28;20061;-63
2022/10/29 04:08:39;;;;;;;17.80;7.85;;;15.30;83.10;;;;;;5016607;28;20030;-62
2022/10/29 04:11:06;;;;;;;15.60;7.68;;;15.30;83.10;;;;;;5015579;28;20029;-62
2022/10/29 04:13:32;;;;;;;15.05;7.95;;;15.30;83.10;;;;;;5016185;28;20105;-62
2022/10/29 04:15:58;;;;;;;19.20;7.22;;;15.40;83.10;;;;;;5013601;28;20527;-62
2022/10/29 04:18:24;;;;;;;15.10;7.85;;;15.40;83.10;;;;;;5027456;28;20040;-62
2022/10/29 04:20:49;;;;;;;18.50;7.63;;;15.40;83.10;;;;;;5033754;28;20122;-62
2022/10/29 04:23:15;;;;;;;15.77;7.70;;;15.30;83.10;;;;;;5021948;28;20026;-62
2022/10/29 04:25:40;;;;;;;22.00;8.77;;;15.40;83.20;;;;;;5029394;28;20455;-62
2022/10/29 04:28:06;;;;;;;19.50;8.57;;;15.30;83.10;;;;;;5022090;28;20037;-62
2022/10/29 04:30:31;;;;;;;20.73;8.40;;;15.30;83.20;;;;;;5029896;28;20358;-62
2022/10/29 04:32:58;;;;;;;16.17;7.53;;;15.30;83.20;;;;;;5022289;28;20083;-62
2022/10/29 04:35:28;;;;;;;17.55;8.88;;;15.40;83.30;;;;;;5027098;28;20033;-62
2022/10/29 04:37:56;;;;;;;18.77;8.20;;;15.30;83.30;;;;;;5020181;28;20040;-62
2022/10/29 04:40:23;;;;;;;14.68;7.85;;;15.30;83.30;;;;;;5026170;28;20037;-63
2022/10/29 04:42:49;;;;;;;14.18;7.28;;;15.30;83.30;;;;;;5021257;28;20394;-62
2022/10/29 04:45:15;;;;;;;15.90;8.13;;;15.30;83.30;;;;;;5027647;28;20499;-62
2022/10/29 04:47:41;;;;;;;15.95;7.88;;;15.30;83.30;;;;;;5014978;28;20030;-62
2022/10/29 04:50:06;;;;;;;15.93;7.82;;;15.30;83.30;;;;;;5015944;28;20037;-62
2022/10/29 04:52:32;;;;;;;14.55;7.80;;;15.30;83.30;;;;;;5028880;28;20034;-62
2022/10/29 04:54:58;;;;;;;12.88;7.20;;;15.30;83.40;;;;;;5015500;28;20032;-62
2022/10/29 04:57:23;;;;;;;15.00;7.47;;;15.30;83.30;;;;;;5013051;28;20025;-62
2022/10/29 04:59:49;;;;;;;17.05;8.10;;;15.30;83.30;;;;;;5014420;28;20455;-62
2022/10/29 05:02:14;;;;;;;15.15;8.10;;;15.30;83.30;;;;;;5013841;28;20033;-63
2022/10/29 05:04:40;;;;;;;16.85;8.82;;;15.20;83.30;;;;;;5014695;28;20026;-63
2022/10/29 05:07:06;;;;;;;11.85;6.88;;;15.30;83.30;;;;;;5012050;28;20411;-63
2022/10/29 05:09:31;;;;;;;15.65;8.43;;;15.20;83.30;;;;;;5013251;28;20061;-62
2022/10/29 05:11:57;;;;;;;14.68;7.93;;;15.20;83.30;;;;;;5014261;28;20022;-62
2022/10/29 05:14:22;;;;;;;16.55;7.28;;;15.20;83.20;;;;;;5014315;28;20391;-63
2022/10/29 05:16:48;;;;;;;14.05;7.07;;;15.20;83.30;;;;;;5014486;28;20083;-63
2022/10/29 05:19:14;;;;;;;16.00;7.32;;;15.20;83.20;;;;;;5015022;28;20466;-62
2022/10/29 05:21:39;;;;;;;13.35;7.63;;;15.20;83.20;;;;;;5014789;28;20065;-63
2022/10/29 05:24:05;;;;;;;16.45;8.68;;;15.20;83.20;;;;;;5011663;28;20084;-62
2022/10/29 05:26:31;;;;;;;13.80;7.53;;;15.20;83.30;;;;;;5017480;28;20455;-62
2022/10/29 05:28:57;;;;;;;17.02;7.90;;;15.20;83.30;;;;;;5019924;28;20034;-63
2022/10/29 05:31:22;;;;;;;12.02;7.07;;;15.20;83.30;;;;;;5018982;28;20032;-62
2022/10/29 05:33:48;;;;;;;16.00;7.25;;;15.20;83.30;;;;;;5018768;28;20176;-62
2022/10/29 05:36:13;;;;;;;13.77;7.40;;;15.20;83.30;;;;;;5015349;28;20026;-62
2022/10/29 05:38:39;;;;;;;13.68;7.63;;;15.20;83.30;;;;;;5014835;28;20052;-62
2022/10/29 05:41:05;;;;;;;17.77;7.70;;;15.20;83.40;;;;;;5015013;28;20030;-62
2022/10/29 05:43:30;;;;;;;18.48;8.52;;;15.20;83.50;;;;;;5014008;28;20103;-63
2022/10/29 05:45:56;;;;;;;14.77;8.43;;;15.20;83.50;;;;;;5015016;28;20423;-62
2022/10/29 05:48:22;;;;;;;14.02;8.13;;;15.30;83.50;;;;;;5012244;28;20410;-63
2022/10/29 05:50:47;;;;;;;16.13;8.60;;;15.30;83.50;;;;;;5028144;28;20446;-63
2022/10/29 05:53:14;;;;;;;15.30;8.35;;;15.30;83.60;;;;;;5029085;28;20057;-63
2022/10/29 05:55:40;;;;;;;15.00;8.23;;;15.30;83.60;;;;;;5016558;28;20160;-63
2022/10/29 05:58:09;;;;;;;15.25;8.07;;;15.30;83.60;;;;;;5028400;28;20060;-63
2022/10/29 06:00:37;;;;;;;16.25;8.13;;;15.30;83.60;;;;;;5019167;28;20030;-62
2022/10/29 06:03:07;;;;;;;14.38;7.90;;;15.20;83.60;;;;;;5013415;28;20060;-63
2022/10/29 06:05:33;;;;;;;13.60;7.70;;;15.30;83.70;;;;;;5014860;28;20100;-63
2022/10/29 06:08:00;;;;;;;14.10;7.82;;;15.20;83.60;;;;;;5012256;28;20136;-63
2022/10/29 06:10:27;;;;;;;16.52;8.75;;;15.30;83.70;;;;;;5015045;28;20095;-62
2022/10/29 06:12:53;;;;;;;13.27;7.80;;;15.30;83.70;;;;;;5013954;28;20117;-63
2022/10/29 06:15:19;;;;;;;15.07;9.63;;;15.30;83.70;;;;;;5014168;28;20117;-63
2022/10/29 06:17:45;;;;;;;14.05;8.13;;;15.30;83.70;;;;;;5010951;28;20092;-63
2022/10/29 06:20:13;;;;;;;17.50;8.13;;;15.30;83.70;;;;;;5014607;28;20481;-63
2022/10/29 06:22:38;;;;;;;14.93;8.52;;;15.30;83.70;;;;;;5014463;28;20057;-63
2022/10/29 06:25:04;;;;;;;18.17;8.27;;;15.30;83.70;;;;;;5014030;28;20026;-63
2022/10/29 06:27:30;;;;;;;15.38;9.32;;;15.30;83.80;;;;;;5013456;28;20339;-63
2022/10/29 06:29:55;;;;;;;14.20;8.60;;;15.30;83.80;;;;;;5016126;28;20065;-63
2022/10/29 06:32:21;;;;;;;15.70;8.77;;;15.30;83.80;;;;;;5014236;28;20029;-63
2022/10/29 06:34:47;;;;;;;14.80;9.02;;;15.30;83.80;;;;;;5013448;28;20454;-63
2022/10/29 06:37:13;;;;;;;16.27;8.32;;;15.30;83.90;;;;;;5015237;28;20026;-63
2022/10/29 06:39:38;;;;;;;13.52;8.63;;;15.30;83.90;;;;;;5018509;28;20045;-63
2022/10/29 06:42:04;;;;;;;14.20;8.25;;;15.40;84.00;;;;;;5018199;28;20107;-63
2022/10/29 06:44:30;;;;;;;18.25;8.70;;;15.40;84.00;;;;;;5016002;28;20049;-63
2022/10/29 06:46:55;;;;;;;15.05;9.00;;;15.40;84.00;;;;;;5018048;28;20033;-65
2022/10/29 06:49:21;;;;;;;16.83;8.13;;;15.40;84.10;;;;;;5018740;28;20061;-63
2022/10/29 06:51:47;;;;;;;14.82;8.57;;;15.40;84.10;;;;;;5037790;28;20037;-63
2022/10/29 06:54:13;;;;;;;16.00;8.60;;;15.50;84.20;;;;;;5029699;28;20036;-63
2022/10/29 06:56:38;;;;;;;14.35;8.38;;;15.50;84.30;;;;;;5036541;28;20025;-63
2022/10/29 06:59:04;;;;;;;15.05;8.95;;;15.50;84.30;;;;;;5026767;28;20156;-63
2022/10/29 07:01:32;;;;;;;15.88;9.52;;;15.50;84.30;;;;;;5018661;28;20077;-63
2022/10/29 07:03:58;;;;;;;13.27;8.07;;;15.50;84.30;;;;;;5016767;28;20037;-63
2022/10/29 07:06:24;;;;;;;14.82;8.90;;;15.50;84.30;;;;;;5031382;28;20056;-63
2022/10/29 07:08:49;;;;;;;17.45;9.75;;;15.60;84.40;;;;;;5017680;28;20443;-63
2022/10/29 07:11:15;;;;;;;16.48;9.60;;;15.50;84.40;;;;;;5016932;28;20473;-63
2022/10/29 07:13:41;;;;;;;16.77;9.15;;;15.60;84.50;;;;;;5017265;28;20030;-63
2022/10/29 07:16:07;;;;;;;17.33;10.40;;;15.60;84.50;;;;;;5014866;28;20037;-63
2022/10/29 07:18:33;;;;;;;16.65;9.50;;;15.60;84.50;;;;;;5014238;28;20149;-63
2022/10/29 07:21:00;;;;;;;18.52;10.18;;;15.70;84.60;;;;;;5014133;28;20037;-63
2022/10/29 07:23:26;;;;;;;19.02;10.45;;;15.70;84.60;;;;;;5016460;28;20088;-63
2022/10/29 07:25:52;;;;;;;18.67;9.73;;;15.70;84.60;;;;;;5016825;28;20037;-62
2022/10/29 07:28:20;;;;;;;18.92;11.00;;;15.80;84.70;;;;;;5016246;28;20069;-63
2022/10/29 07:30:47;;;;;;;18.55;10.77;;;15.80;84.80;;;;;;5018045;28;20044;-63
2022/10/29 07:33:13;;;;;;;17.20;10.68;;;15.80;84.80;;;;;;5029888;28;20036;-63
2022/10/29 07:35:39;;;;;;;20.27;11.68;;;15.90;84.80;;;;;;5022566;28;20026;-63
2022/10/29 07:38:06;;;;;;;18.70;11.25;;;15.90;84.80;;;;;;5029468;28;20104;-63
2022/10/29 07:40:32;;;;;;;23.40;13.13;;;15.90;84.80;;;;;;5016535;28;20033;-63
2022/10/29 07:42:58;;;;;;;20.92;15.02;;;16.00;84.90;;;;;;5031202;28;20116;-63
2022/10/29 07:45:23;;;;;;;23.15;14.52;;;16.10;84.90;;;;;;5024385;28;20416;-63
2022/10/29 07:48:01;;;;;;;22.90;14.48;;;16.20;84.90;;;;;;5032523;28;20037;-63
2022/10/29 07:50:28;;;;;;;21.63;13.73;;;16.20;84.90;;;;;;5018559;28;20033;-63
2022/10/29 07:52:53;;;;;;;20.58;13.32;;;16.30;84.90;;;;;;5028887;28;20026;-63
2022/10/29 07:55:19;;;;;;;22.02;14.50;;;16.40;84.90;;;;;;5024544;28;20492;-63
2022/10/29 07:57:45;;;;;;;25.63;15.18;;;16.40;84.90;;;;;;5026127;28;20017;-63
2022/10/29 08:00:11;;;;;;;25.70;15.30;;;16.40;84.90;;;;;;5014217;28;20446;-63
2022/10/29 08:02:41;;;;;;;25.27;14.68;;;16.50;85.00;;;;;;5012275;28;20091;-63
2022/10/29 08:05:07;;;;;;;23.95;14.63;;;16.50;85.10;;;;;;5014765;28;20417;-63
2022/10/29 08:07:33;;;;;;;22.80;15.02;;;16.60;85.10;;;;;;5015938;28;20044;-63
2022/10/29 08:09:58;;;;;;;24.17;15.45;;;16.60;85.10;;;;;;5014796;28;20447;-63
2022/10/29 08:12:24;;;;;;;24.15;14.70;;;16.60;85.10;;;;;;5010762;28;20073;-63
2022/10/29 08:14:50;;;;;;;23.95;15.35;;;16.70;85.20;;;;;;5008308;28;20103;-62
2022/10/29 08:17:15;;;;;;;23.70;14.70;;;16.70;85.10;;;;;;5012887;28;20045;-63
2022/10/29 08:19:41;;;;;;;22.42;13.27;;;16.80;85.10;;;;;;5011857;28;20532;-62
2022/10/29 08:22:06;;;;;;;22.90;14.18;;;16.80;85.10;;;;;;5013056;28;20026;-62
2022/10/29 08:24:32;;;;;;;23.30;13.80;;;16.80;85.10;;;;;;5014691;28;20469;-63
2022/10/29 08:26:58;;;;;;;24.13;13.35;;;16.90;85.10;;;;;;5006661;28;20038;-62
2022/10/29 08:29:23;;;;;;;21.02;12.30;;;17.00;85.20;;;;;;5012261;28;20021;-62
2022/10/29 08:31:49;;;;;;;21.75;13.27;;;17.00;85.10;;;;;;5015062;28;20062;-62
2022/10/29 08:34:15;;;;;;;22.67;13.90;;;17.00;85.10;;;;;;5014675;28;20040;-63
2022/10/29 08:36:41;;;;;;;20.63;13.25;;;17.10;85.10;;;;;;5018603;28;20048;-62
2022/10/29 08:39:06;;;;;;;26.65;14.63;;;17.20;85.10;;;;;;5016320;28;20478;-62
2022/10/29 08:41:56;;;;;;;23.15;13.05;;;17.30;85.00;;;;;;5016098;28;20026;-62
2022/10/29 08:44:50;;;;;;;23.23;14.05;;;17.40;84.90;;;;;;5015211;28;20042;-62
2022/10/29 08:47:19;;;;;;;22.48;12.52;;;17.50;84.70;;;;;;5006964;28;20092;-62
2022/10/29 08:50:09;;;;;;;26.10;13.38;;;17.50;84.50;;;;;;5016277;28;20034;-62
2022/10/29 08:52:37;;;;;;;21.20;12.65;;;17.60;84.40;;;;;;5008682;28;20018;-62
2022/10/29 08:55:11;;;;;;;18.38;12.98;;;17.60;84.40;;;;;;5011692;28;20026;-62
2022/10/29 08:58:02;;;;;;;19.40;13.90;;;17.70;84.30;;;;;;5014661;28;20382;-62
2022/10/29 09:00:35;;;;;;;19.73;13.25;;;17.70;84.30;;;;;;4994246;28;20038;-62
2022/10/29 09:03:01;;;;;;;22.80;12.50;;;17.70;84.30;;;;;;5015878;28;20038;-62
2022/10/29 09:05:37;;;;;;;20.55;13.05;;;17.70;84.30;;;;;;5015693;28;20124;-62
2022/10/29 09:08:28;;;;;;;23.73;13.85;;;17.80;84.30;;;;;;5012165;28;20454;-62
2022/10/29 09:10:55;;;;;;;18.60;11.70;;;17.80;84.20;;;;;;5015814;28;20048;-62
2022/10/29 09:14:04;;;;;;;20.70;13.07;;;17.80;84.10;;;;;;5011365;28;20038;-62
2022/10/29 09:16:41;;;;;;;21.13;12.05;;;17.90;84.10;;;;;;5007390;28;20448;-62
2022/10/29 09:19:25;;;;;;;24.48;12.18;;;18.00;83.90;;;;;;5015395;28;20053;-62
2022/10/29 09:22:08;;;;;;;19.17;11.75;;;18.10;83.70;;;;;;5007204;28;20030;-62
2022/10/29 09:24:51;;;;;;;18.38;11.35;;;18.10;83.50;;;;;;5014208;28;20038;-63
2022/10/29 09:27:27;;;;;;;19.60;12.38;;;18.20;83.50;;;;;;5020868;28;20021;-62
2022/10/29 09:30:16;;;;;;;17.70;11.52;;;18.20;83.40;;;;;;5011014;28;20065;-62
2022/10/29 09:32:53;;;;;;;16.63;11.38;;;18.20;83.40;;;;;;5016415;28;20076;-62
2022/10/29 09:35:25;;;;;;;18.30;11.68;;;18.20;83.50;;;;;;5014940;28;20018;-62
2022/10/29 09:38:00;;;;;;;19.38;11.70;;;18.20;83.50;;;;;;5015359;28;20125;-62
2022/10/29 09:40:33;;;;;;;17.83;11.88;;;18.20;83.50;;;;;;5014113;28;20049;-62
2022/10/29 09:43:04;;;;;;;17.90;11.85;;;18.20;83.70;;;;;;5014490;28;20444;-63
2022/10/29 09:46:00;;;;;;;24.55;12.15;;;18.20;83.50;;;;;;5014479;28;20068;-63
2022/10/29 09:48:59;;;;;;;19.45;11.32;;;18.10;83.50;;;;;;4988246;28;20575;-63
2022/10/29 09:51:30;;;;;;;18.40;9.93;;;18.20;83.50;;;;;;4992787;28;20038;-63
2022/10/29 09:53:56;;;;;;;17.95;11.77;;;18.20;83.50;;;;;;4993102;28;20046;-63
2022/10/29 09:56:22;;;;;;;21.13;12.52;;;18.10;83.50;;;;;;4960057;28;20137;-64
2022/10/29 09:58:54;;;;;;;20.10;11.85;;;18.20;83.50;;;;;;4990231;28;20124;-64
2022/10/29 10:01:20;;;;;;;19.70;12.75;;;18.20;83.50;;;;;;4989727;28;20037;-64
2022/10/29 10:03:54;;;;;;;17.92;11.65;;;18.20;83.40;;;;;;5003128;28;20062;-64
2022/10/29 10:06:20;;;;;;;20.60;12.38;;;18.20;83.40;;;;;;4997485;28;20469;-63
2022/10/29 10:09:01;;;;;;;20.75;12.10;;;18.20;83.40;;;;;;4996341;28;20061;-63
2022/10/29 10:11:41;;;;;;;19.98;12.07;;;18.20;83.50;;;;;;5000043;28;20034;-63
2022/10/29 10:14:32;;;;;;;19.67;12.20;;;18.30;83.50;;;;;;5009304;28;20034;-63
2022/10/29 10:17:00;;;;;;;19.63;11.35;;;18.20;83.50;;;;;;5004688;28;20046;-63
2022/10/29 10:19:30;;;;;;;20.23;12.10;;;18.20;83.50;;;;;;4988720;28;20371;-63
2022/10/29 10:22:01;;;;;;;17.40;11.90;;;18.30;83.50;;;;;;5002175;28;20076;-63
2022/10/29 10:24:29;;;;;;;20.48;11.98;;;18.30;83.50;;;;;;4999188;28;20031;-63
2022/10/29 10:26:54;;;;;;;20.25;11.48;;;18.30;83.40;;;;;;5025631;28;20060;-62
2022/10/29 10:29:22;;;;;;;20.70;11.15;;;18.30;83.40;;;;;;5010389;28;20061;-63
2022/10/29 10:31:49;;;;;;;17.20;11.32;;;18.40;83.40;;;;;;5016858;28;20065;-62
2022/10/29 10:34:16;;;;;;;16.83;11.10;;;18.40;83.40;;;;;;5021307;28;20327;-63
2022/10/29 10:36:46;;;;;;;17.65;11.38;;;18.40;83.40;;;;;;5017836;28;20026;-63
2022/10/29 10:39:36;;;;;;;17.85;11.00;;;18.40;83.30;;;;;;5015293;28;20038;-63
2022/10/29 10:42:06;;;;;;;17.98;11.32;;;18.50;83.10;;;;;;5015906;28;20040;-63
2022/10/29 10:44:32;;;;;;;20.60;11.68;;;18.70;82.80;;;;;;5027237;28;20026;-63
2022/10/29 10:47:04;;;;;;;19.25;10.32;;;18.80;82.50;;;;;;5022580;28;20388;-63
2022/10/29 10:49:35;;;;;;;17.75;11.20;;;19.00;82.20;;;;;;5030521;28;20343;-63
2022/10/29 10:52:17;;;;;;;18.17;10.77;;;19.20;81.80;;;;;;5016521;28;20057;-63
2022/10/29 10:54:53;;;;;;;;;;;19.50;81.50;;;;;;5033628;28;20021;-63
2022/10/29 10:57:21;;;;;;;17.75;9.75;;;19.70;81.00;;;;;;5016327;28;20342;-63
2022/10/29 10:59:54;;;;;;;17.25;9.00;;;19.90;80.50;;;;;;5022863;28;20033;-62
2022/10/29 11:02:43;;;;;;;16.50;10.63;;;20.20;80.00;;;;;;5019459;28;20117;-62
2022/10/29 11:05:18;;;;;;;17.38;8.55;;;20.20;79.40;;;;;;5015725;28;20092;-63
2022/10/29 11:08:25;;;;;;;19.60;9.55;;;20.30;79.40;;;;;;5006495;28;20026;-62
2022/10/29 11:10:57;;;;;;;17.00;8.88;;;20.30;79.20;;;;;;4975986;28;20042;-62
2022/10/29 11:13:33;;;;;;;16.17;9.05;;;20.30;79.20;;;;;;4976169;28;20038;-62
2022/10/29 11:16:19;;;;;;;12.63;8.13;;;20.20;79.00;;;;;;4977736;28;20041;-62
2022/10/29 11:18:52;;;;;;;15.05;8.80;;;20.20;79.10;;;;;;4978976;28;20113;-62
2022/10/29 11:21:36;;;;;;;15.68;8.50;;;20.20;79.20;;;;;;4964446;28;20436;-63
2022/10/29 11:24:11;;;;;;;17.20;8.45;;;20.20;79.10;;;;;;4974667;28;20073;-62
2022/10/29 11:26:47;;;;;;;16.40;9.18;;;20.20;78.90;;;;;;4976915;28;20034;-62
2022/10/29 11:29:21;;;;;;;14.82;9.00;;;20.20;78.60;;;;;;4976661;28;20121;-62
2022/10/29 11:32:12;;;;;;;16.73;8.68;;;20.20;78.60;;;;;;4974203;28;20039;-62
2022/10/29 11:34:56;;;;;;;16.05;8.75;;;20.20;78.60;;;;;;4959574;28;20085;-63
2022/10/29 11:37:42;;;;;;;14.95;9.00;;;20.20;78.60;;;;;;4978116;28;20074;-62
2022/10/29 11:40:12;;;;;;;14.48;7.68;;;20.20;78.50;;;;;;4975033;28;20063;-62
2022/10/29 11:42:39;;;;;;;18.48;9.05;;;20.40;78.40;;;;;;4975118;28;20117;-62
2022/10/29 11:45:12;;;;;;;14.60;8.07;;;20.50;78.10;;;;;;5003232;28;20037;-62
2022/10/29 11:48:07;;;;;;;15.55;8.73;;;20.60;77.70;;;;;;5014601;28;20120;-62
2022/10/29 11:50:56;;;;;;;15.88;7.88;;;20.70;77.40;;;;;;5015607;28;20029;-62
2022/10/29 11:53:30;;;;;;;19.17;9.05;;;20.70;77.30;;;;;;5014110;28;20030;-62
2022/10/29 11:56:17;;;;;;;13.63;7.65;;;20.70;77.30;;;;;;5012698;28;20030;-62
2022/10/29 11:58:53;;;;;;;13.82;7.25;;;20.70;77.30;;;;;;5018561;28;20044;-62
2022/10/29 12:01:33;;;;;;;10.98;6.35;;;20.70;77.30;;;;;;5015529;28;20029;-62
2022/10/29 12:04:12;;;;;;;13.52;7.30;;;20.70;77.20;;;;;;5017411;28;20030;-62
2022/10/29 12:06:53;;;;;;;14.27;7.40;;;20.60;77.20;;;;;;5016534;28;20065;-62
2022/10/29 12:09:43;;;;;;;13.48;7.82;;;20.50;77.30;;;;;;5015582;28;20037;-62
2022/10/29 12:12:22;;;;;;;12.02;6.60;;;20.50;77.40;;;;;;5017256;28;20109;-62
2022/10/29 12:14:53;;;;;;;13.50;7.38;;;20.50;77.30;;;;;;5015262;28;20124;-62
2022/10/29 12:17:32;;;;;;;13.40;7.80;;;20.50;77.30;;;;;;5014567;28;20037;-62
2022/10/29 12:20:02;;;;;;;16.20;6.97;;;20.50;77.30;;;;;;5010915;28;20297;-62
2022/10/29 12:22:42;;;;;;;15.90;7.00;;;20.50;77.20;;;;;;5015123;28;20029;-62
2022/10/29 12:25:36;;;;;;;11.90;6.35;;;20.50;77.20;;;;;;5015136;28;20033;-62
2022/10/29 12:28:45;;;;;;;12.10;7.18;;;20.50;77.20;;;;;;5017540;28;20095;-62
2022/10/29 12:31:36;;;;;;;14.82;6.63;;;20.50;77.30;;;;;;5014558;28;20022;-62
2022/10/29 12:34:12;;;;;;;12.17;6.83;;;20.40;77.30;;;;;;5016191;28;20101;-61
2022/10/29 12:36:43;;;;;;;13.43;7.18;;;20.40;77.40;;;;;;5016232;28;20088;-61
2022/10/29 12:39:26;;;;;;;13.57;7.25;;;20.40;77.40;;;;;;5016759;28;20108;-62
2022/10/29 12:41:55;;;;;;;13.32;6.55;;;20.40;77.50;;;;;;5015976;28;20037;-62
2022/10/29 12:44:59;;;;;;;13.13;6.55;;;20.40;77.40;;;;;;5012082;28;20034;-62
2022/10/29 12:47:30;;;;;;;11.30;6.10;;;20.50;77.30;;;;;;5016174;28;20025;-62
2022/10/29 12:50:25;;;;;;;13.63;5.65;;;20.50;77.20;;;;;;5016230;28;20029;-62
2022/10/29 12:52:56;;;;;;;14.80;6.13;;;20.60;77.20;;;;;;5013623;28;20037;-62
2022/10/29 12:55:23;;;;;;;13.40;5.97;;;20.60;77.10;;;;;;5029935;28;20413;-62
2022/10/29 12:57:48;;;;;;;12.60;6.55;;;20.60;76.90;;;;;;5031369;28;20461;-62